If you wish to contribute or participate in the discussions about articles you are invited to join SKYbrary as a registered user

 Actions

San Fernando Airport

From SKYbrary Wiki

SADF
Airport
ICAO: SADF
Summary
Name San Fernando Airport
Region South America and Caribbean
Territory Argentina AR.gif
Location San Fernando, Buenos Aires
Serving San Fernando
Elevation 3.048 m
10 ft
10 ft3.048 m
Type medium airport
Coordinates 34° 27' 11.48" S, 58° 35' 22.72" W
Runways
Designator Length Width Surface ROPS
5/23 1801 m5,908.793 ft
30 m98.425 ft
ASP /


METAR
Observation SADF 171900Z 30015KT 270V330 CAVOK 22/04 Q1007
Station San Fernando, BA
Date/Time 17 September 2019 19:00:00
Wind direction 300°
Wind speed 15 kts
Lowest cloud amount clouds and visibility OK
Temperature 22°C
Dew point 4°C
Humidity 30%
QNH 1007 hPa
Weather condition n/a

Airport located 2km1.08 nm
2,000 m
6,561.68 ft
southwest of San Fernando, Buenos Aires Province, Argentina.

Climatology

Humid Sub-tropical climate (Köppen climate classification Cfa).

Maps

Terrain

Loading map...

Airport Layout

Loading map...


Accidents & Serious Incidents at or in vicinity of SADF

None on SKYbrary